createdAt,value
2023-03-24T04:09:52.873Z,97058.56
2023-03-24T04:12:49.519Z,97040.19
2023-03-24T04:16:49.720Z,97059.00
2023-03-24T04:20:14.457Z,97067.44
2023-03-24T04:23:27.334Z,97051.31
2023-03-24T04:26:26.505Z,97039.94
2023-03-24T04:29:42.493Z,97035.44
2023-03-24T04:32:47.730Z,97037.63
2023-03-24T04:35:44.390Z,97029.94
2023-03-24T04:38:57.369Z,97030.19
2023-03-24T04:41:56.365Z,97047.81
2023-03-24T04:44:51.259Z,97054.00
2023-03-24T04:47:50.939Z,97047.75
2023-03-24T04:51:00.636Z,97011.22
2023-03-24T04:53:54.197Z,97030.16
2023-03-24T04:56:50.814Z,97031.72
2023-03-24T04:59:43.545Z,97059.59
2023-03-24T05:02:31.416Z,97050.72
2023-03-24T05:05:28.469Z,97011.06
2023-03-24T05:08:36.792Z,97010.38
2023-03-24T05:11:27.234Z,97014.38
2023-03-24T05:14:21.791Z,97023.47
2023-03-24T05:17:08.978Z,97026.78
2023-03-24T05:19:37.189Z,97051.53
2023-03-24T05:22:07.203Z,97052.75
2023-03-24T05:24:34.981Z,97058.34
2023-03-24T05:27:01.749Z,97051.75
2023-03-24T05:29:28.629Z,97078.81
2023-03-24T05:31:56.265Z,97076.31
2023-03-24T05:34:26.259Z,97091.19
2023-03-24T05:37:14.288Z,97110.00
2023-03-24T05:39:41.055Z,97098.19
2023-03-24T05:42:17.040Z,97089.56
2023-03-24T05:44:46.128Z,97097.22
2023-03-24T05:47:22.057Z,97081.41
2023-03-24T05:49:48.936Z,97094.44
2023-03-24T05:52:16.382Z,97125.84
2023-03-24T05:54:45.959Z,97111.81
2023-03-24T05:57:16.954Z,97107.47
2023-03-24T06:00:05.421Z,97119.72
2023-03-24T06:02:55.457Z,97134.97
2023-03-24T06:05:30.579Z,97137.84
2023-03-24T06:07:58.671Z,97151.94
2023-03-24T06:10:29.178Z,97155.66
2023-03-24T06:12:57.147Z,97143.69
2023-03-24T06:15:27.584Z,97158.78
2023-03-24T06:18:00.911Z,97165.59
2023-03-24T06:20:34.103Z,97149.03
2023-03-24T06:23:10.327Z,97153.19
2023-03-24T06:25:58.302Z,97136.84
2023-03-24T06:28:30.340Z,97150.75
2023-03-24T06:31:00.637Z,97146.56
2023-03-24T06:33:36.118Z,97143.03
2023-03-24T06:36:04.841Z,97172.38
2023-03-24T06:38:33.420Z,97191.25
2023-03-24T06:41:01.730Z,97189.53
2023-03-24T06:43:29.922Z,97216.06
2023-03-24T06:45:56.759Z,97196.44
2023-03-24T06:48:25.994Z,97130.97
2023-03-24T06:50:59.250Z,97130.88
2023-03-24T06:53:46.841Z,97133.72
2023-03-24T06:56:18.268Z,97135.00
2023-03-24T06:58:50.072Z,97190.84
2023-03-24T07:01:32.270Z,97154.84
2023-03-24T07:04:13.232Z,97157.84
2023-03-24T07:07:00.917Z,97166.22
2023-03-24T07:09:33.310Z,97181.69
2023-03-24T07:11:59.857Z,97188.75
2023-03-24T07:14:26.770Z,97184.44
2023-03-24T07:16:54.625Z,97159.38
2023-03-24T07:19:34.916Z,97164.97
2023-03-24T07:22:33.340Z,97161.47
2023-03-24T07:25:20.119Z,97171.44
2023-03-24T07:27:58.325Z,97158.63
2023-03-24T07:30:37.362Z,97174.09
2023-03-24T07:33:07.902Z,97155.47
2023-03-24T07:35:35.222Z,97179.88
2023-03-24T07:38:02.767Z,97140.59
2023-03-24T07:40:30.714Z,97134.50
2023-03-24T07:43:01.401Z,97129.13
2023-03-24T07:45:33.702Z,97150.53
2023-03-24T07:48:03.555Z,97135.81
2023-03-24T07:50:34.395Z,97121.63
2023-03-24T07:53:09.634Z,97107.28
2023-03-24T07:55:39.892Z,97119.44
2023-03-24T07:58:12.874Z,97142.88
2023-03-24T08:00:46.811Z,97145.56
2023-03-24T08:03:27.667Z,97111.09
2023-03-24T08:06:20.637Z,97142.78
2023-03-24T08:08:51.410Z,97095.47
2023-03-24T08:11:17.966Z,97168.25
2023-03-24T08:13:44.541Z,97188.56
2023-03-24T08:16:11.407Z,97138.72
2023-03-24T08:18:37.976Z,97136.25
2023-03-24T08:21:05.116Z,97158.38
2023-03-24T08:23:32.213Z,97161.69
2023-03-24T08:25:58.708Z,97161.69
2023-03-24T08:28:25.324Z,97164.56
2023-03-24T08:30:51.929Z,97135.41
2023-03-24T08:33:18.525Z,97163.53
2023-03-24T08:35:48.173Z,97154.03
2023-03-24T08:38:18.271Z,97154.84
2023-03-24T08:40:45.913Z,97135.63
2023-03-24T08:43:14.911Z,97123.44
2023-03-24T08:45:41.774Z,97108.16
2023-03-24T08:48:09.674Z,97101.69
2023-03-24T08:50:39.762Z,97088.09
2023-03-24T08:53:06.925Z,97105.00
2023-03-24T08:55:33.633Z,97088.53
2023-03-24T08:58:00.852Z,97088.75
2023-03-24T09:00:28.787Z,97070.31
2023-03-24T09:02:56.782Z,97074.41
2023-03-24T09:05:36.693Z,97070.25
2023-03-24T09:08:08.062Z,97066.13
2023-03-24T09:10:34.796Z,97070.25
2023-03-24T09:13:01.278Z,97087.09
2023-03-24T09:15:27.994Z,97080.84
2023-03-24T09:17:54.644Z,97104.91
2023-03-24T09:20:21.412Z,97118.28
2023-03-24T09:22:48.127Z,97140.91
2023-03-24T09:25:18.259Z,97159.69
2023-03-24T09:27:45.101Z,97140.47
2023-03-24T09:30:13.613Z,97137.91
2023-03-24T09:32:40.592Z,97170.66
2023-03-24T09:35:08.600Z,97120.66
2023-03-24T09:37:37.350Z,97085.72
2023-03-24T09:40:05.054Z,97120.06
2023-03-24T09:42:41.290Z,97142.72
2023-03-24T09:45:15.378Z,97124.88
2023-03-24T09:47:52.910Z,97126.34
2023-03-24T09:50:28.712Z,97129.19
2023-03-24T09:53:24.725Z,97116.59
2023-03-24T09:55:51.679Z,97109.13
2023-03-24T09:58:19.951Z,97087.47
2023-03-24T10:00:46.895Z,97094.59
2023-03-24T10:03:22.870Z,97123.47
2023-03-24T10:06:17.939Z,97112.03
2023-03-24T10:08:52.771Z,97124.19
2023-03-24T10:11:37.695Z,97111.34
2023-03-24T10:14:18.404Z,97129.47
2023-03-24T10:16:54.316Z,97106.03
2023-03-24T10:19:42.471Z,97108.38
2023-03-24T10:22:25.830Z,97121.13
2023-03-24T10:25:11.615Z,97119.50
2023-03-24T10:27:51.811Z,97117.16
2023-03-24T10:30:20.855Z,97112.69
2023-03-24T10:32:47.482Z,97108.56
2023-03-24T10:35:51.884Z,97107.22
2023-03-24T10:38:21.878Z,97106.50
2023-03-24T10:40:49.108Z,97119.53
2023-03-24T10:43:18.800Z,97136.66
2023-03-24T10:45:50.085Z,97118.28
2023-03-24T10:48:54.462Z,97118.09
2023-03-24T10:51:27.775Z,97117.06
2023-03-24T10:54:31.729Z,97131.69
2023-03-24T10:56:58.954Z,97120.50
2023-03-24T10:59:32.033Z,97130.03
2023-03-24T11:02:11.230Z,97124.59
2023-03-24T11:04:40.533Z,97133.56
2023-03-24T11:07:20.933Z,97128.53
2023-03-24T11:09:58.046Z,97131.72
2023-03-24T11:12:30.454Z,97137.09
2023-03-24T11:15:22.455Z,97146.53
2023-03-24T11:17:56.704Z,97132.47
2023-03-24T11:20:36.263Z,97124.84
2023-03-24T11:23:11.009Z,97120.50
2023-03-24T11:25:41.480Z,97130.22
2023-03-24T11:28:16.893Z,97120.97
2023-03-24T11:30:50.766Z,97114.72
2023-03-24T11:33:36.118Z,97107.56
2023-03-24T11:36:35.946Z,97113.13
2023-03-24T11:39:13.505Z,97120.38
2023-03-24T11:41:51.913Z,97104.03
2023-03-24T11:44:22.476Z,97108.16
2023-03-24T11:46:57.139Z,97098.41
2023-03-24T11:49:30.343Z,97103.63
2023-03-24T11:51:57.429Z,97101.13
2023-03-24T11:54:33.191Z,97102.34
2023-03-24T11:57:07.828Z,97103.56
2023-03-24T11:59:58.110Z,97091.22
2023-03-24T12:02:38.960Z,97093.69
2023-03-24T12:05:21.322Z,97086.88
2023-03-24T12:07:53.768Z,97071.78
2023-03-24T12:10:49.706Z,97082.53
2023-03-24T12:13:32.173Z,97069.50
2023-03-24T12:16:20.863Z,97083.97
2023-03-24T12:20:06.196Z,97083.78
2023-03-24T12:22:38.546Z,97096.13
2023-03-24T12:25:27.714Z,97093.63
2023-03-24T12:28:11.074Z,97085.56
2023-03-24T12:30:56.726Z,97119.75
2023-03-24T12:33:53.565Z,97091.53
2023-03-24T12:36:37.228Z,97072.06
2023-03-24T12:39:12.851Z,97065.03
2023-03-24T12:41:45.430Z,97073.94
2023-03-24T12:44:37.037Z,97050.28
2023-03-24T12:47:18.614Z,97052.84
2023-03-24T12:49:58.290Z,97055.97
2023-03-24T12:52:30.874Z,97057.91
2023-03-24T12:55:17.664Z,97056.53
2023-03-24T12:57:57.889Z,97053.25
2023-03-24T13:00:31.356Z,97063.81
2023-03-24T13:03:04.849Z,97071.19
2023-03-24T13:05:35.461Z,97024.66
2023-03-24T13:08:13.862Z,97047.13
2023-03-24T13:10:42.098Z,97008.06
2023-03-24T13:13:23.801Z,97005.78
2023-03-24T13:15:58.764Z,96971.06
2023-03-24T13:18:32.776Z,96954.25
2023-03-24T13:21:19.569Z,96998.94
2023-03-24T13:23:57.369Z,97002.47
2023-03-24T13:26:39.501Z,96991.91
2023-03-24T13:29:41.904Z,96993.97
2023-03-24T13:32:32.018Z,97002.91
2023-03-24T13:35:13.343Z,96994.88
2023-03-24T13:37:52.463Z,97023.47
2023-03-24T13:40:25.424Z,97038.78
2023-03-24T13:42:57.737Z,97061.66
2023-03-24T13:45:47.810Z,97097.00
2023-03-24T13:48:36.521Z,97107.94
2023-03-24T13:51:14.346Z,97144.22
2023-03-24T13:53:50.398Z,97076.06
2023-03-24T13:56:25.512Z,97090.84
2023-03-24T13:58:58.186Z,97082.22
2023-03-24T14:01:35.980Z,97110.06
2023-03-24T14:04:21.210Z,97107.56
2023-03-24T14:07:01.453Z,97105.50
2023-03-24T14:09:33.285Z,97047.31
2023-03-24T14:12:03.608Z,97051.34
2023-03-24T14:14:36.411Z,97056.22
2023-03-24T14:17:05.981Z,97075.91
2023-03-24T14:20:02.039Z,97081.94
2023-03-24T14:22:33.646Z,97112.44
2023-03-24T14:25:02.869Z,97130.09
2023-03-24T14:27:35.153Z,97119.06
2023-03-24T14:30:15.984Z,97115.94
2023-03-24T14:32:49.950Z,97111.25
2023-03-24T14:35:25.439Z,97094.53
2023-03-24T14:38:03.071Z,97075.59
2023-03-24T14:40:37.527Z,97073.03
2023-03-24T14:43:22.927Z,97093.94
2023-03-24T14:46:01.868Z,97122.78
2023-03-24T14:48:33.587Z,97130.47
2023-03-24T14:51:39.087Z,97135.94
2023-03-24T14:54:14.382Z,97144.91
2023-03-24T14:56:44.540Z,97148.41
2023-03-24T14:59:27.451Z,97154.50
2023-03-24T15:02:02.781Z,97163.75
2023-03-24T15:04:29.386Z,97165.22
2023-03-24T15:06:55.926Z,97167.91
2023-03-24T15:09:22.465Z,97172.00
2023-03-24T15:11:59.116Z,97174.78
2023-03-24T15:14:26.368Z,97178.56
2023-03-24T15:17:02.942Z,97181.00
2023-03-24T15:19:31.086Z,97173.09
2023-03-24T15:22:07.009Z,97161.88
2023-03-24T15:24:35.772Z,97163.31
2023-03-24T15:27:06.337Z,97169.16
2023-03-24T15:29:41.412Z,97158.66
2023-03-24T15:32:17.329Z,97160.72
2023-03-24T15:34:48.310Z,97158.59
2023-03-24T15:37:24.139Z,97153.47
2023-03-24T15:39:59.171Z,97160.47
2023-03-24T15:42:33.372Z,97148.53
2023-03-24T15:45:11.416Z,97140.94
2023-03-24T15:47:42.064Z,97149.59
2023-03-24T15:50:32.375Z,97144.53
2023-03-24T15:53:05.787Z,97122.19
2023-03-24T15:55:36.893Z,97151.13
2023-03-24T15:58:28.292Z,97150.75
2023-03-24T16:00:59.340Z,97129.75
2023-03-24T16:03:27.004Z,97150.66
2023-03-24T16:05:55.863Z,97165.97
2023-03-24T16:08:38.764Z,97174.09
2023-03-24T16:11:11.011Z,97170.09
2023-03-24T16:13:43.177Z,97156.84
2023-03-24T16:16:15.937Z,97172.13
2023-03-24T16:18:45.181Z,97185.06
2023-03-24T16:21:18.870Z,97173.88
2023-03-24T16:23:46.502Z,97165.75
2023-03-24T16:26:17.747Z,97172.44
2023-03-24T16:28:45.044Z,97171.75
2023-03-24T16:31:17.931Z,97180.13
2023-03-24T16:33:44.549Z,97153.19
2023-03-24T16:36:12.774Z,97148.56
2023-03-24T16:38:39.486Z,97170.25
2023-03-24T16:41:06.540Z,97190.94
2023-03-24T16:43:36.996Z,97163.78
2023-03-24T16:46:05.560Z,97159.16
2023-03-24T16:48:32.424Z,97166.75
2023-03-24T16:50:58.909Z,97157.03
2023-03-24T16:53:25.476Z,97167.78
2023-03-24T16:55:51.942Z,97168.44
2023-03-24T16:58:18.878Z,97171.41
2023-03-24T17:00:45.907Z,97155.41
2023-03-24T17:03:13.811Z,97171.59
2023-03-24T17:05:45.300Z,97160.34
2023-03-24T17:08:14.531Z,97155.53
2023-03-24T17:10:43.307Z,97165.00
2023-03-24T17:13:18.789Z,97180.47
2023-03-24T17:15:45.252Z,97187.91
2023-03-24T17:18:12.010Z,97182.75
2023-03-24T17:20:41.367Z,97174.22
2023-03-24T17:23:13.290Z,97160.91
2023-03-24T17:25:40.036Z,97176.25
2023-03-24T17:28:13.326Z,97177.28
2023-03-24T17:30:40.008Z,97174.97
2023-03-24T17:33:07.146Z,97182.53
2023-03-24T17:35:33.690Z,97185.44
2023-03-24T17:38:00.309Z,97195.78
2023-03-24T17:40:26.864Z,97198.53
2023-03-24T17:42:53.474Z,97190.09
2023-03-24T17:45:20.407Z,97177.28
2023-03-24T17:47:47.346Z,97180.09
2023-03-24T17:50:14.422Z,97158.19
2023-03-24T17:52:45.493Z,97183.91
2023-03-24T17:55:13.859Z,97186.13
2023-03-24T17:57:40.614Z,97190.53
2023-03-24T18:00:11.885Z,97187.50
2023-03-24T18:02:40.442Z,97172.66
2023-03-24T18:05:25.638Z,97193.63
2023-03-24T18:08:12.616Z,97200.69
2023-03-24T18:11:07.954Z,97195.09
2023-03-24T18:13:54.885Z,97203.19
2023-03-24T18:16:42.013Z,97177.97
2023-03-24T18:19:28.904Z,97196.31
2023-03-24T18:22:19.155Z,97198.66
2023-03-24T18:25:10.625Z,97204.75
2023-03-24T18:27:57.671Z,97200.19
2023-03-24T18:30:44.676Z,97192.84
2023-03-24T18:33:31.589Z,97185.38
2023-03-24T18:36:26.904Z,97193.94
2023-03-24T18:39:13.919Z,97203.91
2023-03-24T18:42:00.868Z,97189.13
2023-03-24T18:44:47.713Z,97207.84
2023-03-24T18:47:35.029Z,97206.94
2023-03-24T18:50:22.064Z,97208.44
2023-03-24T18:53:09.033Z,97199.50
2023-03-24T18:55:56.058Z,97203.66
2023-03-24T18:58:43.471Z,97229.41
2023-03-24T19:01:33.057Z,97207.75
2023-03-24T19:04:20.169Z,97215.31
2023-03-24T19:07:08.196Z,97218.66
2023-03-24T19:09:55.359Z,97214.78
2023-03-24T19:12:42.297Z,97227.84
2023-03-24T19:15:30.185Z,97223.03
2023-03-24T19:18:19.266Z,97223.91
2023-03-24T19:21:07.028Z,97241.75
2023-03-24T19:23:54.093Z,97236.06
2023-03-24T19:26:41.214Z,97229.53
2023-03-24T19:29:28.010Z,97245.28
2023-03-24T19:32:14.928Z,97255.41
2023-03-24T19:35:03.844Z,97253.31
2023-03-24T19:37:50.772Z,97260.88
2023-03-24T19:40:39.944Z,97242.81
2023-03-24T19:43:26.758Z,97255.00
2023-03-24T19:46:13.794Z,97237.34
2023-03-24T19:49:00.882Z,97246.19
2023-03-24T19:51:47.724Z,97238.56
2023-03-24T19:54:34.515Z,97222.44
2023-03-24T19:57:21.899Z,97230.72
2023-03-24T20:00:11.727Z,97242.44
2023-03-24T20:02:58.709Z,97242.47
2023-03-24T20:05:45.935Z,97236.44
2023-03-24T20:08:32.810Z,97261.22
2023-03-24T20:11:19.980Z,97242.94
2023-03-24T20:14:06.917Z,97247.97
2023-03-24T20:16:54.417Z,97239.75
2023-03-24T20:19:41.445Z,97239.31
2023-03-24T20:22:28.319Z,97260.38
2023-03-24T20:25:18.112Z,97267.44
2023-03-24T20:28:05.094Z,97272.94
2023-03-24T20:30:52.329Z,97275.31
2023-03-24T20:33:39.395Z,97261.84
2023-03-24T20:36:26.328Z,97272.34
2023-03-24T20:39:15.143Z,97244.41
2023-03-24T20:42:02.186Z,97255.91
2023-03-24T20:44:49.160Z,97263.00
2023-03-24T20:47:36.554Z,97260.06
2023-03-24T20:50:24.001Z,97260.56
2023-03-24T20:53:11.018Z,97256.34
